createdAt,value
2019-02-28T00:02:27.474Z,9.50
2019-02-28T00:04:56.197Z,9.05
2019-02-28T00:07:25.207Z,9.03
2019-02-28T00:09:54.215Z,8.30
2019-02-28T00:12:22.985Z,10.05
2019-02-28T00:14:51.819Z,7.87
2019-02-28T00:17:20.579Z,10.85
2019-02-28T00:19:49.626Z,8.68
2019-02-28T00:22:18.400Z,10.95
2019-02-28T00:24:47.210Z,13.85
2019-02-28T00:27:21.002Z,8.55
2019-02-28T00:29:46.677Z,11.40
2019-02-28T00:32:15.443Z,12.47
2019-02-28T00:34:44.514Z,11.12
2019-02-28T00:37:13.236Z,12.70
2019-02-28T00:39:42.227Z,13.15
2019-02-28T00:42:10.966Z,13.03
2019-02-28T00:44:39.690Z,9.13
2019-02-28T00:47:08.456Z,8.18
2019-02-28T00:49:37.178Z,9.85
2019-02-28T00:52:06.129Z,9.18
2019-02-28T00:54:35.343Z,10.58
2019-02-28T00:57:04.080Z,11.30
2019-02-28T00:59:32.856Z,8.65
2019-02-28T01:02:01.576Z,9.25
2019-02-28T01:04:30.897Z,9.33
2019-02-28T01:06:59.982Z,8.20
2019-02-28T01:09:30.227Z,10.10
2019-02-28T01:11:59.452Z,10.35
2019-02-28T01:14:28.454Z,9.10
2019-02-28T01:16:57.215Z,9.33
2019-02-28T01:19:25.983Z,8.68
2019-02-28T01:21:55.374Z,11.55
2019-02-28T01:24:24.892Z,9.10
2019-02-28T01:26:53.634Z,8.45
2019-02-28T01:29:22.370Z,8.95
2019-02-28T01:31:51.137Z,7.60
2019-02-28T01:34:20.090Z,10.78
2019-02-28T01:36:49.586Z,7.83
2019-02-28T01:39:18.416Z,8.73
2019-02-28T01:41:47.183Z,9.70
2019-02-28T01:44:15.967Z,11.65
2019-02-28T01:46:44.711Z,9.00
2019-02-28T01:49:13.739Z,7.33
2019-02-28T01:51:42.483Z,12.80
2019-02-28T01:54:11.707Z,8.75
2019-02-28T01:56:40.483Z,9.33
2019-02-28T01:59:09.480Z,8.50
2019-02-28T02:01:38.206Z,9.95
2019-02-28T02:04:07.195Z,9.90
2019-02-28T02:06:35.938Z,9.00
2019-02-28T02:09:08.066Z,9.98
2019-02-28T02:11:36.705Z,10.78
2019-02-28T02:14:07.529Z,10.53
2019-02-28T02:16:36.162Z,7.72
2019-02-28T02:19:05.010Z,8.25
2019-02-28T02:21:34.836Z,8.68
2019-02-28T02:24:04.505Z,8.80
2019-02-28T02:26:33.283Z,11.40
2019-02-28T02:29:02.034Z,7.65
2019-02-28T02:31:31.317Z,7.80
2019-02-28T02:34:00.535Z,7.53
2019-02-28T02:36:29.426Z,9.25
2019-02-28T02:38:58.300Z,9.95
2019-02-28T02:41:27.221Z,8.15
2019-02-28T02:43:56.326Z,7.15
2019-02-28T02:46:25.213Z,9.20
2019-02-28T02:48:54.065Z,7.35
2019-02-28T02:51:22.921Z,8.88
2019-02-28T02:53:51.793Z,6.62
2019-02-28T02:56:20.899Z,6.62
2019-02-28T02:58:49.702Z,7.78
2019-02-28T03:01:18.508Z,6.90
2019-02-28T03:03:47.331Z,7.75
2019-02-28T03:06:16.366Z,7.78
2019-02-28T03:08:45.460Z,9.15
2019-02-28T03:11:14.350Z,9.15
2019-02-28T03:13:44.244Z,9.38
2019-02-28T03:16:13.305Z,9.60
2019-02-28T03:18:42.221Z,7.92
2019-02-28T03:21:15.102Z,8.13
2019-02-28T03:23:41.595Z,8.95
2019-02-28T03:26:10.721Z,7.65
2019-02-28T03:28:39.511Z,8.40
2019-02-28T03:31:14.449Z,9.15
2019-02-28T03:33:38.881Z,7.80
2019-02-28T03:36:07.949Z,9.38
2019-02-28T03:38:37.021Z,8.33
2019-02-28T03:41:05.865Z,9.08
2019-02-28T03:43:42.711Z,7.92
2019-02-28T03:46:06.357Z,9.10
2019-02-28T03:48:36.344Z,8.78
2019-02-28T03:51:05.219Z,10.00
2019-02-28T03:53:34.064Z,9.38
2019-02-28T03:56:08.986Z,9.30
2019-02-28T03:58:42.883Z,10.90
2019-02-28T04:01:10.209Z,7.80
2019-02-28T04:03:39.144Z,9.33
2019-02-28T04:06:07.917Z,8.90
2019-02-28T04:08:36.700Z,7.83
2019-02-28T04:11:05.568Z,8.65
2019-02-28T04:13:34.477Z,7.87
2019-02-28T04:16:09.035Z,9.15
2019-02-28T04:18:33.902Z,8.68
2019-02-28T04:21:02.782Z,9.58
2019-02-28T04:23:35.961Z,9.03
2019-02-28T04:26:02.086Z,6.75
2019-02-28T04:28:30.990Z,11.43
2019-02-28T04:30:59.798Z,9.78
2019-02-28T04:33:28.670Z,9.40
2019-02-28T04:36:00.688Z,14.38
2019-02-28T04:38:27.944Z,9.45
2019-02-28T04:40:58.799Z,7.60
2019-02-28T04:43:27.378Z,8.80
2019-02-28T04:45:57.637Z,7.47
2019-02-28T04:48:26.738Z,10.75
2019-02-28T04:50:55.544Z,11.38
2019-02-28T04:53:24.578Z,10.53
2019-02-28T04:55:53.376Z,9.20
2019-02-28T04:58:22.338Z,10.65
2019-02-28T05:00:52.801Z,9.08
2019-02-28T05:03:21.890Z,10.72
2019-02-28T05:05:50.758Z,9.95
2019-02-28T05:08:19.942Z,11.75
2019-02-28T05:10:48.864Z,10.35
2019-02-28T05:13:17.659Z,9.88
2019-02-28T05:15:46.997Z,12.25
2019-02-28T05:18:16.409Z,12.10
2019-02-28T05:20:45.980Z,10.58
2019-02-28T05:23:15.004Z,9.58
2019-02-28T05:25:43.829Z,10.70
2019-02-28T05:28:12.952Z,10.10
2019-02-28T05:30:42.073Z,12.58
2019-02-28T05:33:10.881Z,11.03
2019-02-28T05:35:39.908Z,10.70
2019-02-28T05:38:08.664Z,9.95
2019-02-28T05:40:41.416Z,13.62
2019-02-28T05:43:08.534Z,12.07
2019-02-28T05:45:37.383Z,11.18
2019-02-28T05:48:06.479Z,11.38
2019-02-28T05:50:35.471Z,12.55
2019-02-28T05:53:06.298Z,11.73
2019-02-28T05:55:39.280Z,10.90
2019-02-28T05:58:08.324Z,10.58
2019-02-28T06:00:37.772Z,10.98
2019-02-28T06:03:06.631Z,12.82
2019-02-28T06:05:35.575Z,12.25
2019-02-28T06:08:04.691Z,11.33
2019-02-28T06:10:33.744Z,11.40
2019-02-28T06:13:02.808Z,11.83
2019-02-28T06:15:34.280Z,13.78
2019-02-28T06:18:04.400Z,10.85
2019-02-28T06:20:33.212Z,11.25
2019-02-28T06:23:02.333Z,12.00
2019-02-28T06:25:31.222Z,13.62
2019-02-28T06:28:00.110Z,11.25
2019-02-28T06:30:31.275Z,10.23
2019-02-28T06:33:00.185Z,11.15
2019-02-28T06:35:28.936Z,15.40
2019-02-28T06:37:57.785Z,12.88
2019-02-28T06:40:26.684Z,12.90
2019-02-28T06:42:55.934Z,12.95
2019-02-28T06:45:24.855Z,11.83
2019-02-28T06:47:53.611Z,10.82
2019-02-28T06:50:22.499Z,12.47
2019-02-28T06:52:51.371Z,17.02
2019-02-28T06:55:23.067Z,15.60
2019-02-28T06:57:51.990Z,15.00
2019-02-28T07:00:21.139Z,14.73
2019-02-28T07:02:50.323Z,13.88
2019-02-28T07:05:24.434Z,11.88
2019-02-28T07:07:50.317Z,14.53
2019-02-28T07:10:19.143Z,15.53
2019-02-28T07:12:48.003Z,16.25
2019-02-28T07:15:16.948Z,13.75
2019-02-28T07:17:47.503Z,18.67
2019-02-28T07:20:16.680Z,16.85
2019-02-28T07:22:45.454Z,17.48
2019-02-28T07:25:14.352Z,18.92
2019-02-28T07:27:43.235Z,17.48
2019-02-28T07:30:17.453Z,27.25
2019-02-28T07:32:44.472Z,19.67
2019-02-28T07:35:13.379Z,20.80
2019-02-28T07:37:42.316Z,25.62
2019-02-28T07:40:15.502Z,22.55
2019-02-28T07:42:42.542Z,26.02
2019-02-28T07:45:12.207Z,21.73
2019-02-28T07:47:41.102Z,20.37
2019-02-28T07:50:10.742Z,25.10
2019-02-28T07:52:39.627Z,21.70
2019-02-28T07:55:09.589Z,26.97
2019-02-28T07:57:38.467Z,26.45
2019-02-28T08:00:17.143Z,31.52
2019-02-28T08:02:41.199Z,30.05
2019-02-28T08:05:10.362Z,27.65
2019-02-28T08:07:39.569Z,27.45
2019-02-28T08:10:12.807Z,31.10
2019-02-28T08:12:41.187Z,29.80
2019-02-28T08:15:21.069Z,27.70
2019-02-28T08:17:46.699Z,33.10
2019-02-28T08:20:16.242Z,26.82
2019-02-28T08:22:45.343Z,28.50
2019-02-28T08:25:14.251Z,27.98
2019-02-28T08:27:43.574Z,28.20
2019-02-28T08:30:16.302Z,30.32
2019-02-28T08:32:47.068Z,28.90
2019-02-28T08:35:15.711Z,29.72
2019-02-28T08:37:44.501Z,28.70
2019-02-28T08:40:15.641Z,28.92
2019-02-28T08:42:45.182Z,28.77
2019-02-28T08:45:14.546Z,31.12
2019-02-28T08:47:43.491Z,31.73
2019-02-28T08:50:18.915Z,29.07
2019-02-28T08:52:45.836Z,30.67
2019-02-28T08:55:15.099Z,30.20
2019-02-28T08:57:43.922Z,28.03
2019-02-28T09:00:15.623Z,30.13
2019-02-28T09:02:44.622Z,34.30
2019-02-28T09:05:13.889Z,29.93
2019-02-28T09:07:43.039Z,29.77
2019-02-28T09:10:14.751Z,29.10
2019-02-28T09:12:43.928Z,29.47
2019-02-28T09:15:13.774Z,33.80
2019-02-28T09:17:42.675Z,29.77
2019-02-28T09:20:11.420Z,29.37
2019-02-28T09:22:40.713Z,29.57
2019-02-28T09:25:11.211Z,31.33
2019-02-28T09:27:40.258Z,34.73
2019-02-28T09:30:13.402Z,30.37
2019-02-28T09:32:42.157Z,33.73
2019-02-28T09:35:14.332Z,36.87
2019-02-28T09:37:41.579Z,34.33
2019-02-28T09:40:12.352Z,35.60
2019-02-28T09:42:41.135Z,35.70
2019-02-28T09:45:13.129Z,32.73
2019-02-28T09:47:42.049Z,33.73
2019-02-28T09:50:13.352Z,35.07
2019-02-28T09:52:42.637Z,33.37
2019-02-28T09:55:11.970Z,37.10
2019-02-28T09:57:40.830Z,34.07
2019-02-28T10:00:14.726Z,37.10
2019-02-28T10:02:44.000Z,30.77
2019-02-28T10:05:14.313Z,32.07
2019-02-28T10:07:43.247Z,31.40
2019-02-28T10:10:17.345Z,30.90
2019-02-28T10:12:45.091Z,38.37
2019-02-28T10:15:16.137Z,32.57
2019-02-28T10:17:45.003Z,34.53
2019-02-28T10:20:16.452Z,30.97
2019-02-28T10:22:47.305Z,36.00
2019-02-28T10:25:16.548Z,33.67
2019-02-28T10:27:45.494Z,35.97
2019-02-28T10:30:16.794Z,38.53
2019-02-28T10:32:45.692Z,35.73
2019-02-28T10:35:14.877Z,35.43
2019-02-28T10:37:43.704Z,42.20
2019-02-28T10:40:17.942Z,39.17
2019-02-28T10:42:45.571Z,40.07
2019-02-28T10:45:14.948Z,39.13
2019-02-28T10:47:43.736Z,35.90
2019-02-28T10:50:14.943Z,34.43
2019-02-28T10:52:43.858Z,40.60
2019-02-28T10:55:12.979Z,37.30
2019-02-28T10:57:41.850Z,37.27
2019-02-28T11:00:14.091Z,36.83
2019-02-28T11:02:43.159Z,38.07
2019-02-28T11:05:18.840Z,37.93
2019-02-28T11:07:48.564Z,37.00
2019-02-28T11:10:17.531Z,35.07
2019-02-28T11:12:46.522Z,33.10
2019-02-28T11:15:18.682Z,33.27
2019-02-28T11:17:47.453Z,36.60
2019-02-28T11:20:22.259Z,37.33
2019-02-28T11:22:47.185Z,34.03
2019-02-28T11:25:16.871Z,36.30
2019-02-28T11:27:45.909Z,34.20
2019-02-28T11:30:16.061Z,37.80
2019-02-28T11:32:44.951Z,38.07
2019-02-28T11:35:14.234Z,35.10
2019-02-28T11:37:46.005Z,36.53
2019-02-28T11:40:13.917Z,36.10
2019-02-28T11:42:42.730Z,34.80
2019-02-28T11:45:14.345Z,31.10
2019-02-28T11:47:43.441Z,32.17
2019-02-28T11:50:12.687Z,29.60
2019-02-28T11:52:41.988Z,33.60
2019-02-28T11:55:11.610Z,33.17
2019-02-28T11:57:41.246Z,35.10
2019-02-28T12:00:21.747Z,38.97
2019-02-28T12:02:53.496Z,37.50
2019-02-28T12:05:21.432Z,35.37
2019-02-28T12:07:50.486Z,35.37
2019-02-28T12:10:19.981Z,34.40
2019-02-28T12:12:48.888Z,35.47
2019-02-28T12:15:18.803Z,33.47
2019-02-28T12:17:47.553Z,34.77
2019-02-28T12:20:16.716Z,36.73
2019-02-28T12:22:49.368Z,37.00
2019-02-28T12:25:17.546Z,37.97
2019-02-28T12:27:46.556Z,38.17
2019-02-28T12:30:18.790Z,36.93
2019-02-28T12:32:47.673Z,39.20
2019-02-28T12:35:16.672Z,44.20
2019-02-28T12:37:45.589Z,37.73
2019-02-28T12:40:16.475Z,38.10
2019-02-28T12:42:45.532Z,40.07
2019-02-28T12:45:17.107Z,38.87
2019-02-28T12:47:45.974Z,39.60
2019-02-28T12:50:15.416Z,44.87
2019-02-28T12:52:48.990Z,41.87
2019-02-28T12:55:15.787Z,37.53
2019-02-28T12:57:44.919Z,38.73
2019-02-28T13:00:16.209Z,38.13
2019-02-28T13:02:47.078Z,38.40
2019-02-28T13:05:16.182Z,39.63
2019-02-28T13:07:45.066Z,37.27
2019-02-28T13:10:15.624Z,44.50
2019-02-28T13:12:48.719Z,36.07
2019-02-28T13:15:16.283Z,43.20
2019-02-28T13:17:45.229Z,39.17
2019-02-28T13:20:18.982Z,39.67
2019-02-28T13:22:47.857Z,38.53
2019-02-28T13:25:19.525Z,44.30
2019-02-28T13:27:47.504Z,43.30
2019-02-28T13:30:18.231Z,38.40
2019-02-28T13:32:47.251Z,43.40
2019-02-28T13:35:18.224Z,41.20
2019-02-28T13:37:47.305Z,41.77
2019-02-28T13:40:16.305Z,40.27
2019-02-28T13:42:45.110Z,42.23
2019-02-28T13:45:22.204Z,40.50
2019-02-28T13:47:47.640Z,40.43
2019-02-28T13:50:18.268Z,41.80
2019-02-28T13:52:52.339Z,41.53
2019-02-28T13:55:20.122Z,39.30
2019-02-28T13:57:49.010Z,43.73
2019-02-28T14:00:22.754Z,45.55
2019-02-28T14:02:53.543Z,43.52
2019-02-28T14:05:22.507Z,40.07
2019-02-28T14:07:51.289Z,41.03
2019-02-28T14:10:20.388Z,44.13
2019-02-28T14:12:49.156Z,43.97
2019-02-28T14:15:20.201Z,41.58
2019-02-28T14:17:49.364Z,46.40
2019-02-28T14:20:18.369Z,44.67
2019-02-28T14:22:47.449Z,43.45
2019-02-28T14:25:17.940Z,46.77
2019-02-28T14:27:46.728Z,44.55
2019-02-28T14:30:15.515Z,43.30
2019-02-28T14:32:45.525Z,46.92
2019-02-28T14:35:16.163Z,42.85
2019-02-28T14:37:44.961Z,42.20
2019-02-28T14:40:14.639Z,43.75
2019-02-28T14:42:44.567Z,46.08
2019-02-28T14:45:14.329Z,46.28
2019-02-28T14:47:43.626Z,42.65
2019-02-28T14:50:15.536Z,44.98
2019-02-28T14:52:43.572Z,49.42
2019-02-28T14:55:14.283Z,45.55
2019-02-28T14:57:43.084Z,42.25
2019-02-28T15:00:16.791Z,42.70
2019-02-28T15:03:04.925Z,47.53
2019-02-28T15:05:34.243Z,49.88
2019-02-28T15:08:03.349Z,49.67
2019-02-28T15:10:34.249Z,47.03
2019-02-28T15:13:04.956Z,45.45
2019-02-28T15:15:36.140Z,51.40
2019-02-28T15:18:05.285Z,48.65
2019-02-28T15:20:37.114Z,48.02
2019-02-28T15:23:06.048Z,47.48
2019-02-28T15:25:36.364Z,51.33
2019-02-28T15:28:06.567Z,54.95
2019-02-28T15:30:35.584Z,47.15
2019-02-28T15:33:06.977Z,50.20
2019-02-28T15:35:36.344Z,46.00
2019-02-28T15:38:08.782Z,53.85
2019-02-28T15:40:36.844Z,53.05
2019-02-28T15:43:05.750Z,48.85
2019-02-28T15:45:36.291Z,47.95
2019-02-28T15:48:06.315Z,53.25
2019-02-28T15:50:36.432Z,53.33
2019-02-28T15:53:07.624Z,54.45
2019-02-28T15:55:36.574Z,50.88
2019-02-28T15:58:06.979Z,55.25
2019-02-28T16:00:37.931Z,55.15
2019-02-28T16:03:09.121Z,52.88
2019-02-28T16:05:42.619Z,51.95
2019-02-28T16:08:10.387Z,51.98
2019-02-28T16:10:40.717Z,54.58
2019-02-28T16:13:09.569Z,56.90
2019-02-28T16:15:38.379Z,53.08
2019-02-28T16:18:08.675Z,54.08
2019-02-28T16:20:38.469Z,52.25
2019-02-28T16:23:07.596Z,54.27
2019-02-28T16:25:36.704Z,55.43
2019-02-28T16:28:07.770Z,51.55
2019-02-28T16:30:37.816Z,56.83
2019-02-28T16:33:06.788Z,57.20
2019-02-28T16:35:35.883Z,56.33
2019-02-28T16:38:06.388Z,63.48
2019-02-28T16:40:36.027Z,60.40
2019-02-28T16:43:05.063Z,60.48
2019-02-28T16:45:37.545Z,55.35
2019-02-28T16:48:07.557Z,59.53
2019-02-28T16:50:36.628Z,59.60
2019-02-28T16:53:05.670Z,56.95
2019-02-28T16:55:34.537Z,61.48
2019-02-28T16:58:03.455Z,60.83
2019-02-28T17:00:32.786Z,52.55
2019-02-28T17:03:04.154Z,55.67
2019-02-28T17:05:32.538Z,58.20
2019-02-28T17:08:01.472Z,57.33
2019-02-28T17:10:31.900Z,56.65
2019-02-28T17:13:26.176Z,61.95
2019-02-28T17:16:17.586Z,56.50
2019-02-28T17:18:46.679Z,60.43
2019-02-28T17:21:17.913Z,55.23
2019-02-28T17:23:45.970Z,60.85
2019-02-28T17:26:16.199Z,61.42
2019-02-28T17:29:04.301Z,61.68
2019-02-28T17:31:49.318Z,61.50
2019-02-28T17:34:23.881Z,54.33
2019-02-28T17:36:50.415Z,56.88
2019-02-28T17:39:19.231Z,52.48
2019-02-28T17:41:48.349Z,60.03
2019-02-28T17:44:48.289Z,58.70
2019-02-28T17:47:54.302Z,60.55
2019-02-28T17:50:39.378Z,55.75
2019-02-28T17:53:31.778Z,57.93
2019-02-28T17:56:45.247Z,55.83
2019-02-28T17:59:54.983Z,53.55
2019-02-28T18:03:09.857Z,54.67
2019-02-28T18:06:35.550Z,56.35
2019-02-28T18:09:54.568Z,56.53
2019-02-28T18:12:36.066Z,57.15
2019-02-28T18:15:24.075Z,51.55
2019-02-28T18:18:29.532Z,54.08
2019-02-28T18:21:17.450Z,53.13
2019-02-28T18:24:27.698Z,53.30
2019-02-28T18:27:21.465Z,52.15
2019-02-28T18:30:14.988Z,45.00
2019-02-28T18:32:45.046Z,49.20
2019-02-28T18:35:13.904Z,50.92
2019-02-28T18:37:45.447Z,47.93
2019-02-28T18:40:14.610Z,52.78
2019-02-28T18:42:43.626Z,49.98
2019-02-28T18:45:15.741Z,48.50
2019-02-28T18:47:44.641Z,45.78
2019-02-28T18:50:13.770Z,49.38
2019-02-28T18:52:42.629Z,52.43
2019-02-28T18:55:11.687Z,49.70
2019-02-28T18:57:40.575Z,48.55
2019-02-28T19:00:13.507Z,53.33
2019-02-28T19:02:45.367Z,50.03
2019-02-28T19:05:14.309Z,43.73
2019-02-28T19:07:43.182Z,45.48
2019-02-28T19:10:12.116Z,49.95
2019-02-28T19:12:41.160Z,47.98
2019-02-28T19:15:10.564Z,44.63
2019-02-28T19:17:39.432Z,55.35
2019-02-28T19:20:10.931Z,48.87
2019-02-28T19:22:39.831Z,47.93
2019-02-28T19:25:08.914Z,47.25
2019-02-28T19:27:37.868Z,53.60
2019-02-28T19:30:09.172Z,53.80
2019-02-28T19:32:38.444Z,48.73
2019-02-28T19:35:07.475Z,49.33
2019-02-28T19:37:36.452Z,50.90
2019-02-28T19:40:06.098Z,51.00
2019-02-28T19:42:35.142Z,47.53
2019-02-28T19:45:08.048Z,46.05
2019-02-28T19:47:37.155Z,43.28
2019-02-28T19:50:07.608Z,46.77
2019-02-28T19:52:36.614Z,44.60
2019-02-28T19:55:05.962Z,54.95
2019-02-28T19:57:34.750Z,51.05
2019-02-28T20:00:04.429Z,47.30
2019-02-28T20:02:33.305Z,53.05
2019-02-28T20:05:02.073Z,48.70
2019-02-28T20:07:30.802Z,52.23
2019-02-28T20:09:59.585Z,49.00
2019-02-28T20:12:28.395Z,53.13
2019-02-28T20:14:57.343Z,57.58
2019-02-28T20:17:26.151Z,48.78
2019-02-28T20:19:55.000Z,49.90
2019-02-28T20:22:23.918Z,50.40
2019-02-28T20:24:52.801Z,48.02
2019-02-28T20:27:21.913Z,45.80
2019-02-28T20:29:55.150Z,48.38
2019-02-28T20:32:21.255Z,45.00
2019-02-28T20:34:50.048Z,48.52
2019-02-28T20:37:18.973Z,53.05
2019-02-28T20:39:48.015Z,46.15
2019-02-28T20:42:17.116Z,48.17
2019-02-28T20:44:45.972Z,50.90
2019-02-28T20:47:14.765Z,51.55
2019-02-28T20:49:43.862Z,47.90
2019-02-28T20:52:12.871Z,44.98
2019-02-28T20:54:41.808Z,43.40
2019-02-28T20:57:10.961Z,56.83
2019-02-28T20:59:39.821Z,50.67
2019-02-28T21:02:09.144Z,48.65
2019-02-28T21:04:37.924Z,50.73
2019-02-28T21:07:06.925Z,49.03
2019-02-28T21:09:44.608Z,51.48
2019-02-28T21:12:07.926Z,47.65
2019-02-28T21:14:37.056Z,52.93
2019-02-28T21:17:06.231Z,50.33
2019-02-28T21:19:35.340Z,51.77
2019-02-28T21:22:04.095Z,50.30
2019-02-28T21:24:32.859Z,54.83
2019-02-28T21:27:01.680Z,55.85
2019-02-28T21:29:30.471Z,58.68
2019-02-28T21:31:59.600Z,54.10
2019-02-28T21:34:28.638Z,54.38
2019-02-28T21:36:57.506Z,57.80
2019-02-28T21:39:26.515Z,56.80
2019-02-28T21:41:55.257Z,53.68
2019-02-28T21:44:24.351Z,59.42
2019-02-28T21:46:53.130Z,59.03
2019-02-28T21:49:22.156Z,55.67
2019-02-28T21:51:50.952Z,58.17
2019-02-28T21:54:19.762Z,63.80
2019-02-28T21:56:48.618Z,58.20
2019-02-28T21:59:17.490Z,73.22
2019-02-28T22:01:48.103Z,59.85
2019-02-28T22:04:17.187Z,56.42
2019-02-28T22:06:46.281Z,61.35
2019-02-28T22:09:15.104Z,64.07
2019-02-28T22:11:43.904Z,55.85
2019-02-28T22:14:12.999Z,57.90
2019-02-28T22:16:42.104Z,57.85
2019-02-28T22:19:10.952Z,58.90
2019-02-28T22:21:40.436Z,59.53
2019-02-28T22:24:09.278Z,58.58
2019-02-28T22:26:38.055Z,59.08
2019-02-28T22:29:06.848Z,57.43
2019-02-28T22:31:45.645Z,67.60
2019-02-28T22:34:20.758Z,63.48
2019-02-28T22:36:49.755Z,67.60
2019-02-28T22:39:18.760Z,62.65
2019-02-28T22:41:47.533Z,69.42
2019-02-28T22:44:16.404Z,61.48
2019-02-28T22:46:45.449Z,63.52
2019-02-28T22:49:14.860Z,60.38
2019-02-28T22:51:43.652Z,70.40
2019-02-28T22:54:12.482Z,60.05
2019-02-28T22:56:41.363Z,54.20
2019-02-28T22:59:10.171Z,57.80
2019-02-28T23:01:39.556Z,59.23
2019-02-28T23:04:08.439Z,57.83
2019-02-28T23:06:37.233Z,61.53
2019-02-28T23:09:07.111Z,51.70
2019-02-28T23:11:35.932Z,57.78
2019-02-28T23:14:05.168Z,63.45
2019-02-28T23:16:34.182Z,59.90
2019-02-28T23:19:02.984Z,69.53
2019-02-28T23:21:31.737Z,63.23
2019-02-28T23:24:00.764Z,59.53
2019-02-28T23:26:29.632Z,67.22
2019-02-28T23:29:06.505Z,67.80
2019-02-28T23:32:31.431Z,71.10
2019-02-28T23:35:00.240Z,68.12
2019-02-28T23:37:29.007Z,79.15
2019-02-28T23:39:57.803Z,74.17
2019-02-28T23:42:26.559Z,70.57
2019-02-28T23:44:55.347Z,78.80
2019-02-28T23:47:24.209Z,77.25
2019-02-28T23:49:52.963Z,72.53
2019-02-28T23:52:22.296Z,73.55
2019-02-28T23:54:51.080Z,91.65
2019-02-28T23:57:19.914Z,77.32
2019-02-28T23:59:49.159Z,86.87
